Luxemburg, Wisconsin
Current Conditions -  °F | °C
As of 9:53 AM on Friday 31 Oct 2014 (Local Time) from KGRB Reporting Station
Overcast Overcast  
Wind Chill: 22°   Ceiling: 3700
Heat Index: 35°   Visibility: 10mi
Dew Point: 22°   Wind: 29mph
Humidity: 59%   Direction: 10°N
Pressure: 30.28"   Gusts: 38mph
Location:  44.54°N, 87.7°W
Report Text: KGRB 311453Z 01025G33KT 10SM OVC037 02/M06 A3028 RMK AO2 PK WND 01036/1433 SLP259 T00171056 51030
Loading
Personal Weather Stations






























Interactive Weather Map
Tropical Storm Tracking
New forecast layout! Learn more

10-Day Weather Forecast

Advertisements
Track Severe Weather on mobile